Time;durP1;ratioP1;P1;durP2;ratioP2;P2;SDS_P1;SDS_P2;PMS_P1;PMS_P2;Temp;Humidity;BMP_temperature;BMP_pressure;BME280_temperature;BME280_humidity;BME280_pressure;Samples;Min_cycle;Max_cycle;Signal;HPM_P1;HPM_P2
2023/05/27 00:01:40;;;;;;;13.15;8.68;;;;;;;;;;5101219;28;20035;-84
2023/05/27 00:04:06;;;;;;;12.95;8.43;;;;;;;;;;5100861;28;20111;-84
2023/05/27 00:06:33;;;;;;;14.10;7.88;;;;;;;;;;5101054;28;20095;-84
2023/05/27 00:08:59;;;;;;;10.18;7.32;;;;;;;;;;5100842;28;20108;-84
2023/05/27 00:11:25;;;;;;;10.15;6.75;;;;;;;;;;5100815;28;20052;-83
2023/05/27 00:13:51;;;;;;;10.25;7.25;;;;;;;;;;5099248;28;20368;-83
2023/05/27 00:16:17;;;;;;;14.45;6.80;;;;;;;;;;5099576;28;20032;-84
2023/05/27 00:18:43;;;;;;;8.93;6.57;;;;;;;;;;5116624;28;20038;-84
2023/05/27 00:21:09;;;;;;;10.85;7.43;;;;;;;;;;5121162;28;20023;-84
2023/05/27 00:23:36;;;;;;;9.43;7.10;;;;;;;;;;5121182;28;20106;-84
2023/05/27 00:26:02;;;;;;;9.48;6.78;;;;;;;;;;5117800;28;20035;-83
2023/05/27 00:28:31;;;;;;;12.32;7.28;;;;;;;;;;5119876;28;20055;-84
2023/05/27 00:30:57;;;;;;;9.57;7.20;;;;;;;;;;5120840;28;20106;-84
2023/05/27 00:33:23;;;;;;;11.60;7.32;;;;;;;;;;5120641;28;20051;-83
2023/05/27 00:35:49;;;;;;;11.32;7.35;;;;;;;;;;5120058;28;20023;-84
2023/05/27 00:38:15;;;;;;;9.80;7.07;;;;;;;;;;5121107;28;20030;-84
2023/05/27 00:43:45;;;;;;;10.18;6.72;;;;;;;;;;5120851;28;20042;-85
2023/05/27 00:46:11;;;;;;;13.32;7.07;;;;;;;;;;5100902;28;20032;-85
2023/05/27 00:48:37;;;;;;;11.63;6.32;;;;;;;;;;5099373;28;20031;-85
2023/05/27 00:51:03;;;;;;;11.15;7.18;;;;;;;;;;5100675;28;20016;-85
2023/05/27 00:53:34;;;;;;;15.10;7.22;;;;;;;;;;5099239;28;20031;-84
2023/05/27 00:56:20;;;;;;;11.93;6.70;;;;;;;;;;5099942;28;20308;-85
2023/05/27 00:58:47;;;;;;;9.88;6.50;;;;;;;;;;5100085;28;20107;-84
2023/05/27 01:01:13;;;;;;;9.18;6.85;;;;;;;;;;5098999;28;20410;-85
2023/05/27 01:03:41;;;;;;;11.45;6.57;;;;;;;;;;5108036;28;20040;-84
2023/05/27 01:06:30;;;;;;;13.13;6.82;;;;;;;;;;5120691;28;20049;-84
2023/05/27 01:12:06;;;;;;;11.40;6.57;;;;;;;;;;5120688;28;20041;-85
2023/05/27 01:14:34;;;;;;;17.83;7.10;;;;;;;;;;5120531;27;20035;-85
2023/05/27 01:17:01;;;;;;;11.10;6.45;;;;;;;;;;5120434;28;20076;-85
2023/05/27 01:19:47;;;;;;;10.07;6.97;;;;;;;;;;5119186;28;20302;-85
2023/05/27 01:22:14;;;;;;;9.93;6.28;;;;;;;;;;5110939;28;20028;-85
2023/05/27 01:24:41;;;;;;;11.25;6.80;;;;;;;;;;5099595;28;20047;-85
2023/05/27 01:27:08;;;;;;;12.35;6.65;;;;;;;;;;5115230;28;20024;-85
2023/05/27 01:29:35;;;;;;;12.85;7.47;;;;;;;;;;5118684;28;20424;-85
2023/05/27 01:32:13;;;;;;;12.02;7.25;;;;;;;;;;5118836;28;20041;-84
2023/05/27 01:34:55;;;;;;;11.05;7.07;;;;;;;;;;5119467;28;20138;-84
2023/05/27 01:37:22;;;;;;;14.07;7.05;;;;;;;;;;5109348;28;20028;-84
2023/05/27 01:39:49;;;;;;;14.32;7.38;;;;;;;;;;5106633;28;20392;-85
2023/05/27 01:42:16;;;;;;;14.40;7.20;;;;;;;;;;5119642;28;20051;-85
2023/05/27 01:44:42;;;;;;;10.43;6.60;;;;;;;;;;5102143;28;20032;-84
2023/05/27 01:47:08;;;;;;;11.68;7.18;;;;;;;;;;5098094;28;20040;-84
2023/05/27 01:49:35;;;;;;;23.67;7.53;;;;;;;;;;5098080;28;20062;-83
2023/05/27 01:52:01;;;;;;;10.75;6.95;;;;;;;;;;5097660;28;20116;-84
2023/05/27 01:54:27;;;;;;;15.35;8.13;;;;;;;;;;5098819;28;20025;-84
2023/05/27 01:56:53;;;;;;;10.98;7.43;;;;;;;;;;5099123;28;20024;-88
2023/05/27 01:59:19;;;;;;;10.07;7.10;;;;;;;;;;5098872;28;20079;-84
2023/05/27 02:01:45;;;;;;;10.88;6.63;;;;;;;;;;5098813;28;20418;-84
2023/05/27 02:04:11;;;;;;;12.13;8.05;;;;;;;;;;5108810;28;20039;-84
2023/05/27 02:06:37;;;;;;;18.08;8.18;;;;;;;;;;5119019;28;20016;-84
2023/05/27 02:09:04;;;;;;;15.07;7.18;;;;;;;;;;5117207;28;20023;-85
2023/05/27 02:11:30;;;;;;;15.32;9.05;;;;;;;;;;5119113;28;20103;-85
2023/05/27 02:13:56;;;;;;;15.13;9.55;;;;;;;;;;5119213;28;20027;-85
2023/05/27 02:16:22;;;;;;;13.30;8.65;;;;;;;;;;5108554;28;20054;-85
2023/05/27 02:18:49;;;;;;;10.32;8.10;;;;;;;;;;5098758;28;20091;-85
2023/05/27 02:21:15;;;;;;;13.68;7.40;;;;;;;;;;5114696;28;20028;-85
2023/05/27 02:23:41;;;;;;;16.88;9.18;;;;;;;;;;5117713;28;20302;-85
2023/05/27 02:26:07;;;;;;;13.85;7.97;;;;;;;;;;5117848;28;20115;-86
2023/05/27 02:28:33;;;;;;;12.40;8.68;;;;;;;;;;5118794;28;20024;-85
2023/05/27 02:31:00;;;;;;;16.40;9.40;;;;;;;;;;5118791;28;20110;-85
2023/05/27 02:33:26;;;;;;;11.50;8.52;;;;;;;;;;5117405;28;20067;-84
2023/05/27 02:35:52;;;;;;;14.95;9.05;;;;;;;;;;5118639;28;20027;-85
2023/05/27 02:38:18;;;;;;;13.50;9.32;;;;;;;;;;5113726;28;20035;-85
2023/05/27 02:40:45;;;;;;;14.55;9.45;;;;;;;;;;5097225;28;20028;-85
2023/05/27 02:43:11;;;;;;;13.85;10.25;;;;;;;;;;5098364;28;20031;-84
2023/05/27 02:45:37;;;;;;;15.80;11.68;;;;;;;;;;5098137;28;20019;-84
2023/05/27 02:48:03;;;;;;;19.45;11.05;;;;;;;;;;5098150;28;20016;-84
2023/05/27 02:50:29;;;;;;;16.92;12.13;;;;;;;;;;5097808;28;20402;-83
2023/05/27 02:52:55;;;;;;;16.23;11.82;;;;;;;;;;5097815;28;20024;-84
2023/05/27 02:55:21;;;;;;;17.85;11.38;;;;;;;;;;5097709;28;20028;-84
2023/05/27 02:57:47;;;;;;;19.52;11.43;;;;;;;;;;5107324;28;20054;-83
2023/05/27 03:00:14;;;;;;;21.67;12.25;;;;;;;;;;5118162;28;20077;-83
2023/05/27 03:02:40;;;;;;;15.32;11.10;;;;;;;;;;5117593;27;20020;-83
2023/05/27 03:05:06;;;;;;;22.65;12.52;;;;;;;;;;5118088;28;20047;-83
2023/05/27 03:07:33;;;;;;;17.50;11.43;;;;;;;;;;5117048;28;20035;-84
2023/05/27 03:09:59;;;;;;;15.95;11.63;;;;;;;;;;5117769;28;20031;-84
2023/05/27 03:12:25;;;;;;;20.58;12.38;;;;;;;;;;5118238;28;20098;-84
2023/05/27 03:14:51;;;;;;;17.52;12.13;;;;;;;;;;5116909;28;20024;-84
2023/05/27 03:17:18;;;;;;;17.17;12.75;;;;;;;;;;5098881;28;20059;-84
2023/05/27 03:19:44;;;;;;;18.17;11.70;;;;;;;;;;5097341;28;20039;-84
2023/05/27 03:22:10;;;;;;;22.63;13.55;;;;;;;;;;5097495;28;20032;-84
2023/05/27 03:24:36;;;;;;;19.73;13.38;;;;;;;;;;5097293;28;20028;-84
2023/05/27 03:27:06;;;;;;;16.83;13.65;;;;;;;;;;5097464;28;20036;-85
2023/05/27 03:29:32;;;;;;;19.52;13.63;;;;;;;;;;5097840;28;20028;-84
2023/05/27 03:31:58;;;;;;;20.25;13.02;;;;;;;;;;5097628;28;20030;-84
2023/05/27 03:34:25;;;;;;;22.35;12.88;;;;;;;;;;5101695;28;20048;-85
2023/05/27 03:36:51;;;;;;;20.02;12.82;;;;;;;;;;5117958;28;20064;-84
2023/05/27 03:39:17;;;;;;;22.58;13.93;;;;;;;;;;5117800;28;20023;-85
2023/05/27 03:41:44;;;;;;;24.50;13.88;;;;;;;;;;5117750;28;20032;-84
2023/05/27 03:44:10;;;;;;;18.98;13.73;;;;;;;;;;5116646;28;20428;-85
2023/05/27 03:46:36;;;;;;;23.13;14.77;;;;;;;;;;5117739;28;20030;-85
2023/05/27 03:49:03;;;;;;;21.52;14.15;;;;;;;;;;5117646;28;20051;-85
2023/05/27 03:51:29;;;;;;;19.33;13.32;;;;;;;;;;5117854;28;20095;-85
2023/05/27 03:53:55;;;;;;;17.30;14.35;;;;;;;;;;5117475;28;20035;-85
2023/05/27 03:56:21;;;;;;;25.17;14.38;;;;;;;;;;5106257;28;20402;-85
2023/05/27 03:58:47;;;;;;;17.55;13.35;;;;;;;;;;5097399;28;20327;-86
2023/05/27 04:01:13;;;;;;;21.42;14.40;;;;;;;;;;5096318;28;20028;-86
2023/05/27 04:03:39;;;;;;;17.40;14.18;;;;;;;;;;5098058;28;20043;-84
2023/05/27 04:06:06;;;;;;;19.42;14.75;;;;;;;;;;5099462;28;20349;-83
2023/05/27 04:08:32;;;;;;;18.52;14.32;;;;;;;;;;5107815;28;20024;-83
2023/05/27 04:10:58;;;;;;;22.35;14.98;;;;;;;;;;5104711;28;20020;-84
2023/05/27 04:13:24;;;;;;;24.35;14.27;;;;;;;;;;5104905;28;20432;-84
2023/05/27 04:15:51;;;;;;;18.98;14.65;;;;;;;;;;5117713;28;20366;-84
2023/05/27 04:18:17;;;;;;;19.58;14.77;;;;;;;;;;5102488;28;20032;-83
2023/05/27 04:20:44;;;;;;;20.40;15.20;;;;;;;;;;5097253;28;20091;-84
2023/05/27 04:23:10;;;;;;;22.02;14.70;;;;;;;;;;5104251;28;20023;-84
2023/05/27 04:25:37;;;;;;;17.98;15.23;;;;;;;;;;5112641;28;20107;-85
2023/05/27 04:28:06;;;;;;;22.33;14.65;;;;;;;;;;5096883;28;20019;-84
2023/05/27 04:30:33;;;;;;;17.55;14.25;;;;;;;;;;5110127;28;20020;-85
2023/05/27 04:33:00;;;;;;;19.70;15.63;;;;;;;;;;5119816;28;20035;-84
2023/05/27 04:35:26;;;;;;;20.70;15.52;;;;;;;;;;5121008;28;20023;-85
2023/05/27 04:37:52;;;;;;;19.08;15.32;;;;;;;;;;5120007;28;20019;-85
2023/05/27 04:40:37;;;;;;;20.95;16.42;;;;;;;;;;5116226;28;20028;-85
2023/05/27 04:43:03;;;;;;;20.63;15.35;;;;;;;;;;5106998;28;20032;-85
2023/05/27 04:45:29;;;;;;;23.40;15.45;;;;;;;;;;5118281;28;20038;-84
2023/05/27 04:47:55;;;;;;;19.50;15.32;;;;;;;;;;5120154;28;20024;-84
2023/05/27 04:50:23;;;;;;;17.23;15.07;;;;;;;;;;5120227;28;20413;-84
2023/05/27 04:52:49;;;;;;;18.75;14.50;;;;;;;;;;5102641;28;20116;-85
2023/05/27 04:56:08;;;;;;;20.73;14.85;;;;;;;;;;5099986;28;20028;-84
2023/05/27 04:58:34;;;;;;;19.15;15.00;;;;;;;;;;5101404;28;20107;-84
2023/05/27 05:01:01;;;;;;;19.58;15.25;;;;;;;;;;5104562;28;20077;-84
2023/05/27 05:03:36;;;;;;;17.73;15.02;;;;;;;;;;5099735;28;20036;-84
2023/05/27 05:06:03;;;;;;;18.02;14.80;;;;;;;;;;5101281;28;20024;-83
2023/05/27 05:08:29;;;;;;;18.00;15.48;;;;;;;;;;5113549;28;20035;-83
2023/05/27 05:10:55;;;;;;;16.70;14.85;;;;;;;;;;5111925;28;20065;-84
2023/05/27 05:13:21;;;;;;;20.80;15.15;;;;;;;;;;5112304;28;20355;-84
2023/05/27 05:15:48;;;;;;;22.35;14.75;;;;;;;;;;5100820;28;20035;-83
2023/05/27 05:18:14;;;;;;;19.80;15.07;;;;;;;;;;5112272;28;20032;-84
2023/05/27 05:20:40;;;;;;;22.27;14.73;;;;;;;;;;5115402;28;20314;-83
2023/05/27 05:23:08;;;;;;;24.88;15.43;;;;;;;;;;5108918;28;20028;-83
2023/05/27 05:25:37;;;;;;;20.20;14.70;;;;;;;;;;5098439;28;20074;-83
2023/05/27 05:28:05;;;;;;;19.50;14.75;;;;;;;;;;5104074;28;20059;-84
2023/05/27 05:30:31;;;;;;;24.83;15.60;;;;;;;;;;5099383;28;20046;-84
2023/05/27 05:32:57;;;;;;;16.95;14.63;;;;;;;;;;5097678;28;20322;-83
2023/05/27 08:05:44;;;;;;;13.50;11.73;;;;;;;;;;5114609;27;20429;-78
2023/05/27 08:08:10;;;;;;;16.02;12.68;;;;;;;;;;5114313;28;20099;-79
2023/05/27 08:10:36;;;;;;;15.50;11.00;;;;;;;;;;5102876;28;20025;-81
2023/05/27 08:13:02;;;;;;;16.20;11.68;;;;;;;;;;5102326;28;20023;-81
2023/05/27 08:15:28;;;;;;;15.73;11.38;;;;;;;;;;5107238;28;20055;-80
2023/05/27 08:17:54;;;;;;;13.98;10.23;;;;;;;;;;5094706;28;20040;-80
2023/05/27 08:20:20;;;;;;;16.23;11.25;;;;;;;;;;5102257;28;20321;-79
2023/05/27 08:22:47;;;;;;;14.73;10.73;;;;;;;;;;5094016;28;20082;-80
2023/05/27 08:25:13;;;;;;;15.05;10.90;;;;;;;;;;5093283;28;20396;-80
2023/05/27 08:27:53;;;;;;;13.75;11.02;;;;;;;;;;5094148;28;20040;-80
2023/05/27 08:30:19;;;;;;;18.27;11.10;;;;;;;;;;5092546;28;20413;-80
2023/05/27 08:32:46;;;;;;;15.98;10.48;;;;;;;;;;5093815;28;20051;-81
2023/05/27 08:35:12;;;;;;;11.98;10.10;;;;;;;;;;5093776;28;20326;-82
2023/05/27 08:37:39;;;;;;;16.95;10.90;;;;;;;;;;5094046;28;20090;-81
2023/05/27 08:40:07;;;;;;;37.53;28.85;;;;;;;;;;5093972;28;20482;-80
2023/05/27 08:42:34;;;;;;;24.75;22.20;;;;;;;;;;5094198;28;20039;-80
2023/05/27 08:45:00;;;;;;;31.17;22.77;;;;;;;;;;5092702;28;20036;-80
2023/05/27 08:47:29;;;;;;;19.73;12.80;;;;;;;;;;5101337;28;20028;-78
2023/05/27 08:49:56;;;;;;;18.17;10.40;;;;;;;;;;5114180;28;20024;-78
2023/05/27 08:52:22;;;;;;;15.63;9.88;;;;;;;;;;5112925;28;20027;-79
2023/05/27 08:54:49;;;;;;;16.67;14.82;;;;;;;;;;5095778;28;20034;-79
2023/05/27 08:57:16;;;;;;;16.02;9.95;;;;;;;;;;5092504;28;20028;-78
2023/05/27 08:59:43;;;;;;;13.00;9.82;;;;;;;;;;5093723;28;20418;-79
2023/05/27 09:02:12;;;;;;;12.32;10.02;;;;;;;;;;5107104;28;20024;-79
2023/05/27 09:04:41;;;;;;;11.35;9.02;;;;;;;;;;5113677;28;20040;-79
2023/05/27 09:07:08;;;;;;;10.63;8.80;;;;;;;;;;5113756;28;20057;-79
2023/05/27 09:12:34;;;;;;;11.05;8.57;;;;;;;;;;4983119;23;20129;-80
2023/05/27 09:15:00;;;;;;;10.88;9.10;;;;;;;;;;4992230;28;20041;-80
2023/05/27 09:17:26;;;;;;;15.43;9.40;;;;;;;;;;4980769;28;20031;-79
2023/05/27 09:19:53;;;;;;;12.25;8.80;;;;;;;;;;4981041;28;20030;-79
2023/05/27 09:22:23;;;;;;;12.68;8.77;;;;;;;;;;4980711;28;20464;-79
2023/05/27 09:24:50;;;;;;;10.70;8.90;;;;;;;;;;4980231;28;20027;-79
2023/05/27 09:27:16;;;;;;;15.32;9.65;;;;;;;;;;4980910;28;20081;-79
2023/05/27 09:29:42;;;;;;;16.60;8.98;;;;;;;;;;4980843;28;20023;-80
2023/05/27 09:32:08;;;;;;;11.02;9.05;;;;;;;;;;4980924;28;20023;-79
2023/05/27 09:34:41;;;;;;;12.75;9.43;;;;;;;;;;4980713;28;20062;-78
2023/05/27 09:37:14;;;;;;;14.35;9.65;;;;;;;;;;4980683;28;20034;-79
2023/05/27 09:39:41;;;;;;;12.38;9.48;;;;;;;;;;4980510;28;20294;-80
2023/05/27 09:42:07;;;;;;;15.13;9.10;;;;;;;;;;4980301;28;20377;-79
2023/05/27 09:44:38;;;;;;;14.88;8.77;;;;;;;;;;4980313;28;20118;-79
2023/05/27 09:47:08;;;;;;;9.52;8.50;;;;;;;;;;4980513;28;20034;-79
2023/05/27 09:49:35;;;;;;;12.65;8.75;;;;;;;;;;4980351;28;20022;-79
2023/05/27 09:52:02;;;;;;;12.25;8.68;;;;;;;;;;4980307;28;20022;-79
2023/05/27 09:54:28;;;;;;;11.10;8.63;;;;;;;;;;4980356;28;20050;-79
2023/05/27 09:56:54;;;;;;;13.52;8.63;;;;;;;;;;4980152;28;20421;-79
2023/05/27 09:59:20;;;;;;;9.60;7.43;;;;;;;;;;4980378;28;20035;-79
2023/05/27 10:01:47;;;;;;;14.30;8.93;;;;;;;;;;4980215;28;20030;-80
2023/05/27 10:04:15;;;;;;;13.18;7.95;;;;;;;;;;4978691;28;20042;-79
2023/05/27 10:06:42;;;;;;;14.30;8.68;;;;;;;;;;4979979;28;20027;-79
2023/05/27 10:09:08;;;;;;;11.25;8.40;;;;;;;;;;4979634;28;20037;-80
2023/05/27 10:11:36;;;;;;;42.65;10.38;;;;;;;;;;4979618;28;20081;-80
2023/05/27 10:14:03;;;;;;;15.15;7.97;;;;;;;;;;4980150;28;20031;-80
2023/05/27 10:16:29;;;;;;;12.02;8.18;;;;;;;;;;4980008;28;20306;-79
2023/05/27 10:18:59;;;;;;;10.18;8.38;;;;;;;;;;4978806;28;20026;-79
2023/05/27 10:21:29;;;;;;;10.88;6.88;;;;;;;;;;4979820;28;20034;-78
2023/05/27 10:24:02;;;;;;;13.57;7.72;;;;;;;;;;4978711;28;20038;-79
2023/05/27 10:26:35;;;;;;;9.23;7.65;;;;;;;;;;4979471;28;20023;-79
2023/05/27 10:29:14;;;;;;;18.65;8.93;;;;;;;;;;4978967;28;20027;-78
2023/05/27 10:31:50;;;;;;;54.35;10.30;;;;;;;;;;4979516;28;20302;-79
2023/05/27 10:34:17;;;;;;;12.05;7.88;;;;;;;;;;4978898;28;20038;-85
2023/05/27 10:36:44;;;;;;;14.60;8.10;;;;;;;;;;4979183;28;20376;-84
2023/05/27 10:39:14;;;;;;;12.25;7.78;;;;;;;;;;4980085;28;20286;-85
2023/05/27 10:41:44;;;;;;;10.88;7.32;;;;;;;;;;4979987;28;20035;-84
2023/05/27 10:44:11;;;;;;;14.25;7.68;;;;;;;;;;4979811;28;20035;-87
2023/05/27 10:46:41;;;;;;;14.18;7.65;;;;;;;;;;4979833;28;20027;-85
2023/05/27 10:49:11;;;;;;;9.43;7.40;;;;;;;;;;4979774;28;20035;-85
2023/05/27 10:51:37;;;;;;;13.20;8.15;;;;;;;;;;4978737;28;20046;-85
2023/05/27 10:54:05;;;;;;;11.00;8.00;;;;;;;;;;4979058;28;20035;-86
2023/05/27 10:56:31;;;;;;;12.82;7.78;;;;;;;;;;4979744;28;20053;-86
2023/05/27 10:58:57;;;;;;;10.93;8.10;;;;;;;;;;4978735;28;20031;-85
2023/05/27 11:01:24;;;;;;;11.20;7.72;;;;;;;;;;4978510;28;20030;-85
2023/05/27 11:03:50;;;;;;;9.40;7.60;;;;;;;;;;4979068;28;20035;-85
2023/05/27 11:06:16;;;;;;;9.48;7.93;;;;;;;;;;4969643;28;20028;-85
2023/05/27 11:08:43;;;;;;;10.02;7.05;;;;;;;;;;4959947;29;20030;-85
2023/05/27 11:11:10;;;;;;;9.70;7.90;;;;;;;;;;4959553;28;20027;-84
2023/05/27 11:13:42;;;;;;;14.48;7.93;;;;;;;;;;4959645;28;20337;-85
2023/05/27 11:16:08;;;;;;;12.63;7.15;;;;;;;;;;4958911;29;20031;-85
2023/05/27 11:18:45;;;;;;;11.18;7.47;;;;;;;;;;4959250;28;20046;-85
2023/05/27 11:21:12;;;;;;;11.88;7.72;;;;;;;;;;4959763;29;20428;-85
2023/05/27 11:23:51;;;;;;;11.40;7.68;;;;;;;;;;4958875;29;20500;-85
2023/05/27 11:26:25;;;;;;;13.95;7.50;;;;;;;;;;4959907;29;20112;-88
2023/05/27 11:29:00;;;;;;;12.35;7.63;;;;;;;;;;4960228;28;20030;-87
2023/05/27 11:31:30;;;;;;;11.80;7.75;;;;;;;;;;4960042;29;20098;-87
2023/05/27 11:33:57;;;;;;;11.25;7.70;;;;;;;;;;4959948;28;20051;-86
2023/05/27 11:36:25;;;;;;;9.40;7.85;;;;;;;;;;4958742;29;20035;-85
2023/05/27 11:38:53;;;;;;;9.75;7.82;;;;;;;;;;5262071;23;20081;-85
2023/05/27 11:41:20;;;;;;;11.70;8.27;;;;;;;;;;4998259;28;20061;-85
2023/05/27 11:43:55;;;;;;;9.15;7.30;;;;;;;;;;4997109;28;20038;-84
2023/05/27 11:46:22;;;;;;;11.18;7.60;;;;;;;;;;4997140;28;20423;-85
2023/05/27 11:48:48;;;;;;;10.60;8.05;;;;;;;;;;4998202;28;20459;-85
2023/05/27 11:51:15;;;;;;;13.77;7.30;;;;;;;;;;4998195;28;20035;-87
2023/05/27 11:53:47;;;;;;;11.30;7.40;;;;;;;;;;4996998;28;20030;-82
2023/05/27 11:56:15;;;;;;;10.55;7.70;;;;;;;;;;4997608;28;20110;-86
2023/05/27 11:58:42;;;;;;;10.30;7.38;;;;;;;;;;4997631;28;20045;-84
2023/05/27 12:01:08;;;;;;;8.50;7.38;;;;;;;;;;4998328;28;20030;-85
2023/05/27 12:03:35;;;;;;;22.23;9.75;;;;;;;;;;4997006;28;20137;-85
2023/05/27 12:06:01;;;;;;;32.83;12.13;;;;;;;;;;4998134;28;20018;-88
2023/05/27 12:08:27;;;;;;;21.73;10.43;;;;;;;;;;4998019;28;20026;-86
2023/05/27 12:10:53;;;;;;;24.75;12.52;;;;;;;;;;4998027;28;20058;-84
2023/05/27 12:13:23;;;;;;;17.33;10.18;;;;;;;;;;4997016;28;20023;-84
2023/05/27 12:15:49;;;;;;;16.75;10.50;;;;;;;;;;4998513;28;20310;-84
2023/05/27 12:18:15;;;;;;;15.65;10.50;;;;;;;;;;4996942;28;20081;-84
2023/05/27 12:20:42;;;;;;;13.40;9.98;;;;;;;;;;4997063;28;20113;-90
2023/05/27 12:23:08;;;;;;;19.67;10.65;;;;;;;;;;4998183;28;20069;-88
2023/05/27 12:25:34;;;;;;;12.88;9.52;;;;;;;;;;4997664;28;20474;-85
2023/05/27 12:28:00;;;;;;;11.48;9.45;;;;;;;;;;4997822;28;20122;-85
2023/05/27 12:30:26;;;;;;;13.85;10.30;;;;;;;;;;4997967;28;20045;-84
2023/05/27 12:32:52;;;;;;;18.17;10.48;;;;;;;;;;4996751;28;20399;-84
2023/05/27 12:35:18;;;;;;;17.52;10.75;;;;;;;;;;4997746;28;20034;-84
2023/05/27 12:37:44;;;;;;;13.70;10.55;;;;;;;;;;4996683;28;20062;-84
2023/05/27 12:40:14;;;;;;;14.68;10.57;;;;;;;;;;4997385;28;20137;-84
2023/05/27 12:42:40;;;;;;;18.60;10.60;;;;;;;;;;4996767;28;20331;-84
2023/05/27 12:45:07;;;;;;;13.65;11.07;;;;;;;;;;4997770;28;20045;-85
2023/05/27 12:47:33;;;;;;;15.23;10.77;;;;;;;;;;4996410;28;20050;-84
2023/05/27 12:49:59;;;;;;;22.27;9.93;;;;;;;;;;4997701;28;20018;-85
2023/05/27 12:52:25;;;;;;;14.65;10.27;;;;;;;;;;5000040;28;20056;-84
2023/05/27 12:54:51;;;;;;;13.55;9.20;;;;;;;;;;5001266;28;20030;-85
2023/05/27 12:57:17;;;;;;;11.27;9.45;;;;;;;;;;5001315;28;20026;-84
2023/05/27 12:59:44;;;;;;;13.90;10.48;;;;;;;;;;5001256;28;20022;-85
2023/05/27 13:02:10;;;;;;;15.00;10.38;;;;;;;;;;5001455;28;20027;-85
2023/05/27 13:04:36;;;;;;;13.82;10.57;;;;;;;;;;5000073;28;20113;-84
2023/05/27 13:07:02;;;;;;;15.00;9.93;;;;;;;;;;5001152;28;20038;-85
2023/05/27 13:09:29;;;;;;;16.83;10.10;;;;;;;;;;5000316;28;20027;-85
2023/05/27 13:11:55;;;;;;;11.38;9.40;;;;;;;;;;5000263;28;20427;-84
2023/05/27 13:14:21;;;;;;;16.48;10.45;;;;;;;;;;5000889;28;20031;-85
2023/05/27 13:16:47;;;;;;;13.13;9.80;;;;;;;;;;5000893;28;20038;-85
2023/05/27 13:19:13;;;;;;;9.93;8.55;;;;;;;;;;5000974;28;20031;-85
2023/05/27 13:21:39;;;;;;;10.70;8.23;;;;;;;;;;5000932;28;20048;-84
2023/05/27 13:24:06;;;;;;;8.60;7.25;;;;;;;;;;5000749;28;20312;-85
2023/05/27 13:26:33;;;;;;;8.20;7.32;;;;;;;;;;4999809;28;20336;-85
2023/05/27 13:28:59;;;;;;;11.23;7.25;;;;;;;;;;5000732;28;20026;-85
2023/05/27 13:31:25;;;;;;;8.13;7.00;;;;;;;;;;5000837;28;20022;-85
2023/05/27 13:33:51;;;;;;;10.68;7.18;;;;;;;;;;5000331;28;20423;-85
2023/05/27 13:36:17;;;;;;;9.52;7.25;;;;;;;;;;5000753;28;20030;-85
2023/05/27 13:38:43;;;;;;;11.15;7.68;;;;;;;;;;4999335;28;20072;-85
2023/05/27 13:41:09;;;;;;;10.57;7.55;;;;;;;;;;5000501;28;20035;-85
2023/05/27 13:43:35;;;;;;;7.65;6.78;;;;;;;;;;5000981;28;20114;-84
2023/05/27 13:46:01;;;;;;;10.63;7.40;;;;;;;;;;4999886;28;20025;-84
2023/05/27 13:48:27;;;;;;;13.27;7.43;;;;;;;;;;4999506;28;20026;-85
2023/05/27 13:50:53;;;;;;;11.82;7.90;;;;;;;;;;4999340;28;20435;-84
2023/05/27 13:53:38;;;;;;;11.93;7.03;;;;;;;;;;4999259;28;20030;-83
2023/05/27 13:56:05;;;;;;;11.18;7.13;;;;;;;;;;4999286;28;20408;-85
2023/05/27 13:58:31;;;;;;;9.43;7.20;;;;;;;;;;5000262;28;20335;-84
2023/05/27 14:00:57;;;;;;;13.93;6.75;;;;;;;;;;5000122;28;20022;-84
2023/05/27 14:03:24;;;;;;;9.38;6.32;;;;;;;;;;5000026;28;20038;-85
2023/05/27 14:05:51;;;;;;;10.75;7.05;;;;;;;;;;4998897;28;20062;-84
2023/05/27 14:08:17;;;;;;;12.05;6.90;;;;;;;;;;4999821;28;20026;-84
2023/05/27 14:10:43;;;;;;;11.02;6.57;;;;;;;;;;4999028;28;20317;-84
2023/05/27 14:13:09;;;;;;;10.52;7.20;;;;;;;;;;5000174;28;20437;-83
2023/05/27 14:15:35;;;;;;;13.35;6.03;;;;;;;;;;5000088;28;20023;-84
2023/05/27 14:18:04;;;;;;;8.00;5.90;;;;;;;;;;4999906;28;20045;-84
2023/05/27 14:20:30;;;;;;;19.65;6.60;;;;;;;;;;4999717;28;20068;-84
2023/05/27 14:22:59;;;;;;;7.50;6.03;;;;;;;;;;4998813;28;20022;-85
2023/05/27 14:25:25;;;;;;;10.68;6.32;;;;;;;;;;4999789;28;20154;-85
2023/05/27 14:27:51;;;;;;;7.25;5.80;;;;;;;;;;4999422;28;20029;-85
2023/05/27 14:30:17;;;;;;;10.63;6.10;;;;;;;;;;4998615;28;20034;-85
2023/05/27 14:32:44;;;;;;;7.28;6.07;;;;;;;;;;4998571;28;20061;-85
2023/05/27 14:35:10;;;;;;;7.45;5.60;;;;;;;;;;4999591;28;20030;-85
2023/05/27 14:37:36;;;;;;;15.02;6.45;;;;;;;;;;4998652;28;20075;-85
2023/05/27 14:43:36;;;;;;;8.63;5.45;;;;;;;;;;4977399;28;20340;-85
2023/05/27 14:46:02;;;;;;;8.50;6.18;;;;;;;;;;4979893;28;20034;-85
2023/05/27 14:48:28;;;;;;;8.18;6.10;;;;;;;;;;4979228;28;20035;-84
2023/05/27 14:50:54;;;;;;;8.15;5.93;;;;;;;;;;4979651;28;20023;-85
2023/05/27 14:53:20;;;;;;;13.52;6.35;;;;;;;;;;4980137;28;20026;-85
2023/05/27 14:55:48;;;;;;;8.48;5.85;;;;;;;;;;4979903;28;20031;-85
2023/05/27 14:58:14;;;;;;;10.35;5.95;;;;;;;;;;4979574;28;20022;-85
2023/05/27 15:00:40;;;;;;;13.32;6.63;;;;;;;;;;4979599;28;20060;-84
2023/05/27 15:03:06;;;;;;;10.75;5.82;;;;;;;;;;4978634;28;20027;-85
2023/05/27 15:05:32;;;;;;;9.30;5.70;;;;;;;;;;4978550;28;20114;-84
2023/05/27 15:07:59;;;;;;;9.68;6.28;;;;;;;;;;4979467;28;20368;-85
2023/05/27 15:10:25;;;;;;;11.18;5.85;;;;;;;;;;4979303;28;20023;-85
2023/05/27 15:12:51;;;;;;;7.82;5.97;;;;;;;;;;4979630;28;20274;-85
2023/05/27 15:15:20;;;;;;;10.30;6.45;;;;;;;;;;4979150;28;20472;-84
2023/05/27 15:17:46;;;;;;;12.70;5.72;;;;;;;;;;4979304;28;20030;-85
2023/05/27 15:20:13;;;;;;;8.55;5.97;;;;;;;;;;4978439;28;20034;-84
2023/05/27 15:22:39;;;;;;;9.60;5.43;;;;;;;;;;4979585;28;20325;-85
2023/05/27 15:25:24;;;;;;;8.82;6.00;;;;;;;;;;4979194;28;20146;-84
2023/05/27 15:27:50;;;;;;;9.07;5.85;;;;;;;;;;4979159;28;20050;-84
2023/05/27 15:30:17;;;;;;;8.98;5.88;;;;;;;;;;4979316;28;20021;-85
2023/05/27 15:32:43;;;;;;;11.02;5.82;;;;;;;;;;4978158;28;20062;-85
2023/05/27 15:35:09;;;;;;;8.88;5.68;;;;;;;;;;4978599;28;20023;-85
2023/05/27 15:37:36;;;;;;;7.18;5.45;;;;;;;;;;4979212;28;20364;-85
2023/05/27 15:40:02;;;;;;;12.65;6.00;;;;;;;;;;4979075;28;20030;-85
2023/05/27 15:42:28;;;;;;;7.78;5.20;;;;;;;;;;4979064;28;20031;-86
2023/05/27 15:44:55;;;;;;;11.80;5.72;;;;;;;;;;4988440;28;20038;-85
2023/05/27 15:47:21;;;;;;;7.40;5.18;;;;;;;;;;4998292;28;20066;-85
2023/05/27 15:49:47;;;;;;;8.25;5.45;;;;;;;;;;4998200;28;20404;-85
2023/05/27 15:52:13;;;;;;;8.00;5.60;;;;;;;;;;4997203;28;20169;-85
2023/05/27 15:54:39;;;;;;;9.02;5.28;;;;;;;;;;4998238;28;20121;-85
2023/05/27 15:57:07;;;;;;;7.10;6.15;;;;;;;;;;4998440;28;20037;-85
2023/05/27 15:59:34;;;;;;;8.82;5.07;;;;;;;;;;4998108;28;20068;-85
2023/05/27 16:02:00;;;;;;;7.85;5.90;;;;;;;;;;4998136;28;20367;-85
2023/05/27 16:04:26;;;;;;;7.25;5.68;;;;;;;;;;4998053;28;20034;-85
2023/05/27 16:06:53;;;;;;;8.23;5.18;;;;;;;;;;4998056;28;20392;-85
2023/05/27 16:09:19;;;;;;;6.20;4.20;;;;;;;;;;4997052;28;20030;-85
2023/05/27 16:11:45;;;;;;;7.00;4.30;;;;;;;;;;4998154;28;20109;-85
2023/05/27 16:14:11;;;;;;;6.18;3.85;;;;;;;;;;4997248;28;20026;-85
2023/05/27 16:16:37;;;;;;;6.65;4.72;;;;;;;;;;4996866;28;20053;-86
2023/05/27 16:19:03;;;;;;;6.80;5.32;;;;;;;;;;4997834;28;20034;-85
2023/05/27 16:21:29;;;;;;;9.10;5.45;;;;;;;;;;4996925;28;20435;-85
2023/05/27 16:23:55;;;;;;;10.88;6.28;;;;;;;;;;4998252;28;20030;-85
2023/05/27 16:26:21;;;;;;;12.77;6.30;;;;;;;;;;5000174;28;20048;-85
2023/05/27 16:28:47;;;;;;;10.85;6.60;;;;;;;;;;5000603;28;20384;-85
2023/05/27 16:31:13;;;;;;;10.65;6.50;;;;;;;;;;5000852;28;20328;-86
2023/05/27 16:33:39;;;;;;;12.25;6.10;;;;;;;;;;5000682;28;20030;-85
2023/05/27 16:36:08;;;;;;;9.27;6.22;;;;;;;;;;5001939;28;20034;-85
2023/05/27 16:38:34;;;;;;;11.18;6.50;;;;;;;;;;5001555;28;20404;-85
2023/05/27 16:41:00;;;;;;;9.20;6.47;;;;;;;;;;5000795;28;20068;-85
2023/05/27 16:43:27;;;;;;;9.40;6.10;;;;;;;;;;5001574;28;20408;-86
2023/05/27 16:45:53;;;;;;;9.27;6.70;;;;;;;;;;5000497;28;20053;-85
2023/05/27 16:48:19;;;;;;;10.15;6.50;;;;;;;;;;5001234;28;20411;-86
2023/05/27 16:50:46;;;;;;;9.13;6.85;;;;;;;;;;5001756;28;20023;-85
2023/05/27 16:53:12;;;;;;;10.52;6.85;;;;;;;;;;5001386;28;20029;-86
2023/05/27 16:55:38;;;;;;;11.98;6.82;;;;;;;;;;5000558;28;20027;-85
2023/05/27 16:58:04;;;;;;;10.10;7.15;;;;;;;;;;5001503;28;20501;-85
2023/05/27 17:00:30;;;;;;;13.32;6.72;;;;;;;;;;5001033;28;20439;-85
2023/05/27 17:02:56;;;;;;;9.80;6.15;;;;;;;;;;4985328;28;20054;-87
2023/05/27 17:05:22;;;;;;;8.60;6.07;;;;;;;;;;4961039;28;20122;-86
2023/05/27 17:07:48;;;;;;;12.23;6.35;;;;;;;;;;4963422;28;20362;-81
2023/05/27 17:10:19;;;;;;;8.93;6.78;;;;;;;;;;4962599;28;20031;-95
2023/05/27 17:12:45;;;;;;;13.63;6.55;;;;;;;;;;4973880;28;20436;-95